createdAt,value
2022-11-22T00:01:04.783Z,-2.90
2022-11-22T00:03:32.759Z,-2.97
2022-11-22T00:06:00.719Z,-2.95
2022-11-22T00:08:28.697Z,-2.98
2022-11-22T00:10:56.697Z,-2.94
2022-11-22T00:13:24.622Z,-2.94
2022-11-22T00:16:01.267Z,-2.92
2022-11-22T00:18:29.526Z,-3.01
2022-11-22T00:20:58.033Z,-2.98
2022-11-22T00:23:26.026Z,-2.94
2022-11-22T00:25:54.011Z,-2.94
2022-11-22T00:28:22.014Z,-2.98
2022-11-22T00:30:50.068Z,-2.97
2022-11-22T00:33:19.422Z,-2.91
2022-11-22T00:35:47.647Z,-2.90
2022-11-22T00:38:15.727Z,-2.82
2022-11-22T00:40:44.508Z,-2.81
2022-11-22T00:43:12.502Z,-2.84
2022-11-22T00:45:41.834Z,-2.86
2022-11-22T00:48:09.831Z,-2.86
2022-11-22T00:50:39.724Z,-2.91
2022-11-22T00:53:07.677Z,-2.83
2022-11-22T00:55:35.955Z,-2.87
2022-11-22T00:58:03.949Z,-2.82
2022-11-22T01:00:32.041Z,-2.84
2022-11-22T01:03:00.055Z,-2.83
2022-11-22T01:05:28.026Z,-2.78
2022-11-22T01:07:57.595Z,-2.78
2022-11-22T01:10:25.738Z,-2.75
2022-11-22T01:12:53.913Z,-2.77
2022-11-22T01:15:21.921Z,-2.69
2022-11-22T01:17:49.966Z,-2.70
2022-11-22T01:20:18.117Z,-2.65
2022-11-22T01:22:46.095Z,-2.72
2022-11-22T01:25:15.383Z,-2.67
2022-11-22T01:27:43.356Z,-2.65
2022-11-22T01:30:12.302Z,-2.74
2022-11-22T01:32:40.345Z,-2.70
2022-11-22T01:35:10.662Z,-2.67
2022-11-22T01:37:38.857Z,-2.68
2022-11-22T01:40:08.081Z,-2.61
2022-11-22T01:42:49.770Z,-2.66
2022-11-22T01:45:42.181Z,-2.82
2022-11-22T01:48:21.495Z,-2.67
2022-11-22T01:50:53.052Z,-2.65
2022-11-22T01:53:26.553Z,-2.68
2022-11-22T01:55:56.250Z,-2.64
2022-11-22T01:58:28.403Z,-2.63
2022-11-22T02:00:57.223Z,-2.66
2022-11-22T02:03:27.453Z,-2.69
2022-11-22T02:05:56.203Z,-2.64
2022-11-22T02:08:30.765Z,-2.60
2022-11-22T02:11:02.620Z,-2.65
2022-11-22T02:13:35.548Z,-2.59
2022-11-22T02:16:04.423Z,-2.62
2022-11-22T02:18:35.718Z,-2.58
2022-11-22T02:21:04.223Z,-2.55
2022-11-22T02:23:44.947Z,-2.62
2022-11-22T02:26:15.543Z,-2.53
2022-11-22T02:28:44.023Z,-2.56
2022-11-22T02:31:38.302Z,-2.59
2022-11-22T02:34:06.286Z,-2.52
2022-11-22T02:36:38.493Z,-2.62
2022-11-22T02:39:08.182Z,-2.64
2022-11-22T02:41:38.803Z,-2.63
2022-11-22T02:44:08.576Z,-2.57
2022-11-22T02:46:36.570Z,-2.57
2022-11-22T02:49:04.556Z,-2.57
2022-11-22T02:51:32.472Z,-2.54
2022-11-22T02:54:00.431Z,-2.51
2022-11-22T02:56:28.447Z,-2.54
2022-11-22T02:58:57.830Z,-2.46
2022-11-22T03:01:25.877Z,-2.48
2022-11-22T03:03:53.980Z,-2.48
2022-11-22T03:06:21.967Z,-2.45
2022-11-22T03:08:55.959Z,-2.43
2022-11-22T03:11:24.824Z,-2.54
2022-11-22T03:13:52.895Z,-2.50
2022-11-22T03:16:22.205Z,-2.48
2022-11-22T03:18:50.149Z,-2.49
2022-11-22T03:21:18.093Z,-2.45
2022-11-22T03:23:46.069Z,-2.44
2022-11-22T03:26:14.147Z,-2.49
2022-11-22T03:28:42.137Z,-2.41
2022-11-22T03:31:10.154Z,-2.43
2022-11-22T03:33:39.600Z,-2.43
2022-11-22T03:36:07.636Z,-2.45
2022-11-22T03:38:36.242Z,-2.43
2022-11-22T03:41:04.251Z,-2.51
2022-11-22T03:43:32.196Z,-2.47
2022-11-22T03:46:00.237Z,-2.46
2022-11-22T03:48:28.212Z,-2.45
2022-11-22T03:51:05.626Z,-2.35
2022-11-22T03:53:34.072Z,-2.37
2022-11-22T03:56:02.308Z,-2.38
2022-11-22T03:58:30.364Z,-2.37
2022-11-22T04:00:58.463Z,-2.37
2022-11-22T04:03:26.676Z,-2.42
2022-11-22T04:05:54.716Z,-2.30
2022-11-22T04:08:24.455Z,-2.30
2022-11-22T04:10:52.898Z,-2.30
2022-11-22T04:13:21.296Z,-2.26
2022-11-22T04:15:48.333Z,-2.21
2022-11-22T04:18:16.263Z,-2.18
2022-11-22T04:21:01.786Z,-2.23
2022-11-22T04:23:34.232Z,-2.28
2022-11-22T04:26:01.425Z,-2.27
2022-11-22T04:28:54.159Z,-2.23
2022-11-22T04:31:34.558Z,-2.24
2022-11-22T04:34:02.545Z,-2.17
2022-11-22T04:36:30.499Z,-2.18
2022-11-22T04:38:59.877Z,-2.11
2022-11-22T04:41:27.905Z,-2.12
2022-11-22T04:44:13.701Z,-2.08
2022-11-22T04:46:41.709Z,-2.12
2022-11-22T04:49:09.625Z,-2.00
2022-11-22T04:51:55.100Z,-2.11
2022-11-22T04:54:24.588Z,-2.10
2022-11-22T04:56:52.509Z,-2.09
2022-11-22T04:59:20.531Z,-2.07
2022-11-22T05:01:48.483Z,-2.02
2022-11-22T05:04:16.474Z,-2.03
2022-11-22T05:06:44.480Z,-1.99
2022-11-22T05:09:12.446Z,-1.95
2022-11-22T05:11:41.816Z,-1.83
2022-11-22T05:14:10.566Z,-1.93
2022-11-22T05:16:38.515Z,-1.94
2022-11-22T05:19:06.439Z,-1.82
2022-11-22T05:21:35.701Z,-1.78
2022-11-22T05:24:03.471Z,-1.78
2022-11-22T05:26:33.391Z,-1.78
2022-11-22T05:29:06.803Z,-1.69
2022-11-22T05:31:35.670Z,-1.66
2022-11-22T05:34:04.170Z,-1.60
2022-11-22T05:36:33.863Z,-1.57
2022-11-22T05:39:02.520Z,-1.50
2022-11-22T05:41:30.486Z,-1.33
2022-11-22T05:43:59.081Z,-1.28
2022-11-22T05:46:29.943Z,-1.17
2022-11-22T05:48:59.336Z,-0.75
2022-11-22T05:51:34.261Z,-0.99
2022-11-22T05:54:03.550Z,-1.20
2022-11-22T05:56:31.580Z,-1.16
2022-11-22T05:58:59.528Z,-1.19
2022-11-22T06:01:28.930Z,-0.93
2022-11-22T06:03:56.891Z,-0.97
2022-11-22T06:06:24.840Z,-1.00
2022-11-22T06:08:52.963Z,-1.13
2022-11-22T06:11:23.098Z,-1.11
2022-11-22T06:13:53.152Z,-1.09
2022-11-22T06:16:21.147Z,-0.98
2022-11-22T06:18:50.809Z,-1.09
2022-11-22T06:21:23.233Z,-0.93
2022-11-22T06:23:51.606Z,-1.05
2022-11-22T06:26:21.003Z,-0.94
2022-11-22T06:28:50.175Z,-0.85
2022-11-22T06:31:20.538Z,-0.86
2022-11-22T06:33:50.234Z,-0.78
2022-11-22T06:36:20.118Z,-0.77
2022-11-22T06:38:48.774Z,-0.83
2022-11-22T06:41:19.002Z,-0.87
2022-11-22T06:43:49.657Z,-0.78
2022-11-22T06:46:19.811Z,-0.78
2022-11-22T06:48:48.363Z,-0.86
2022-11-22T06:51:19.528Z,-0.87
2022-11-22T06:53:49.147Z,-0.80
2022-11-22T06:56:19.442Z,-0.98
2022-11-22T06:58:48.407Z,-1.03
2022-11-22T07:01:18.217Z,-1.10
2022-11-22T07:03:46.620Z,-1.11
2022-11-22T07:06:15.869Z,-1.14
2022-11-22T07:08:46.614Z,-1.19
2022-11-22T07:11:16.188Z,-1.16
2022-11-22T07:13:44.610Z,-1.17
2022-11-22T07:16:14.700Z,-1.12
2022-11-22T07:18:43.289Z,-1.11
2022-11-22T07:21:13.878Z,-1.12
2022-11-22T07:23:43.340Z,-1.13
2022-11-22T07:26:13.616Z,-1.14
2022-11-22T07:28:42.139Z,-1.19
2022-11-22T07:31:11.792Z,-1.15
2022-11-22T07:33:40.425Z,-1.13
2022-11-22T07:36:10.213Z,-1.09
2022-11-22T07:38:38.961Z,-1.14
2022-11-22T07:41:08.021Z,-1.26
2022-11-22T07:43:37.661Z,-1.16
2022-11-22T07:46:07.985Z,-1.11
2022-11-22T07:48:36.304Z,-1.15
2022-11-22T07:51:05.821Z,-1.15
2022-11-22T07:53:34.781Z,-1.10
2022-11-22T07:56:03.683Z,-1.11
2022-11-22T07:58:31.632Z,-1.14
2022-11-22T08:01:06.050Z,-1.13
2022-11-22T08:03:34.154Z,-1.10
2022-11-22T08:06:02.778Z,-1.12
2022-11-22T08:08:30.886Z,-1.13
2022-11-22T08:10:58.895Z,-1.08
2022-11-22T08:13:27.414Z,-1.08
2022-11-22T08:15:59.651Z,-1.09
2022-11-22T08:18:31.517Z,-1.08
2022-11-22T08:21:06.527Z,-1.10
2022-11-22T08:23:34.797Z,-1.10
2022-11-22T08:26:02.847Z,-1.10
2022-11-22T08:28:31.037Z,-1.04
2022-11-22T08:31:02.484Z,-1.03
2022-11-22T08:33:32.050Z,-1.00
2022-11-22T08:36:00.191Z,-1.00
2022-11-22T08:38:28.293Z,-1.02
2022-11-22T08:40:56.451Z,-0.96
2022-11-22T08:43:24.456Z,-0.94
2022-11-22T08:45:56.073Z,-0.94
2022-11-22T08:48:24.216Z,-0.97
2022-11-22T08:50:54.806Z,-0.97
2022-11-22T08:53:23.126Z,-0.98
2022-11-22T08:55:51.663Z,-0.99
2022-11-22T08:58:19.723Z,-0.97
2022-11-22T09:00:47.972Z,-0.90
2022-11-22T09:03:15.903Z,-0.93
2022-11-22T09:08:36.211Z,-0.83
2022-11-22T09:11:06.458Z,-0.83
2022-11-22T09:13:34.581Z,-0.83
2022-11-22T09:16:03.184Z,-0.76
2022-11-22T09:18:31.226Z,-0.75
2022-11-22T09:21:00.410Z,-0.83
2022-11-22T09:23:29.082Z,-0.83
2022-11-22T09:26:03.653Z,-0.75
2022-11-22T09:28:31.989Z,-0.82
2022-11-22T09:31:01.444Z,-0.70
2022-11-22T09:33:29.657Z,-0.66
2022-11-22T09:36:01.779Z,-0.68
2022-11-22T09:38:29.844Z,-0.67
2022-11-22T09:40:59.089Z,-0.71
2022-11-22T09:43:42.227Z,-0.71
2022-11-22T09:46:22.730Z,-0.72
2022-11-22T09:49:20.841Z,-0.71
2022-11-22T09:51:55.872Z,-0.63
2022-11-22T09:54:28.138Z,-0.66
2022-11-22T09:57:02.639Z,-0.69
2022-11-22T09:59:36.133Z,-0.67
2022-11-22T10:02:18.124Z,-0.71
2022-11-22T10:04:54.910Z,-0.67
2022-11-22T10:07:29.730Z,-0.55
2022-11-22T10:10:05.482Z,-0.59
2022-11-22T10:12:41.802Z,-0.59
2022-11-22T10:15:20.823Z,-0.62
2022-11-22T10:17:54.064Z,-0.54
2022-11-22T10:20:24.229Z,-0.52
2022-11-22T10:22:52.788Z,-0.54
2022-11-22T10:25:22.744Z,-0.46
2022-11-22T10:27:57.584Z,-0.53
2022-11-22T10:30:36.829Z,-0.56
2022-11-22T10:33:14.210Z,-0.51
2022-11-22T10:35:56.553Z,-0.37
2022-11-22T10:38:50.196Z,-0.49
2022-11-22T10:41:34.784Z,-0.53
2022-11-22T10:44:13.767Z,-0.45
2022-11-22T10:46:56.546Z,-0.43
2022-11-22T10:49:39.904Z,-0.48
2022-11-22T10:52:19.394Z,-0.44
2022-11-22T10:54:52.108Z,-0.46
2022-11-22T10:57:26.928Z,-0.42
2022-11-22T11:00:14.731Z,-0.41
2022-11-22T11:03:08.225Z,-0.37
2022-11-22T11:06:07.944Z,-0.34
2022-11-22T11:09:02.789Z,-0.27
2022-11-22T11:11:27.822Z,-0.29
2022-11-22T11:13:59.336Z,-0.23
2022-11-22T11:16:32.247Z,-0.23
2022-11-22T11:19:12.380Z,-0.16
2022-11-22T11:21:40.427Z,-0.18
2022-11-22T11:24:13.969Z,-0.14
2022-11-22T11:26:43.738Z,-0.17
2022-11-22T11:29:37.744Z,-0.14
2022-11-22T11:32:09.372Z,-0.16
2022-11-22T11:34:41.609Z,-0.12
2022-11-22T11:37:22.264Z,-0.12
2022-11-22T11:39:50.308Z,-0.07
2022-11-22T11:42:29.328Z,-0.11
2022-11-22T11:45:22.442Z,-0.08
2022-11-22T11:47:50.424Z,-0.04
2022-11-22T11:50:24.532Z,0.04
2022-11-22T11:52:55.871Z,-0.01
2022-11-22T11:55:29.122Z,0.07
2022-11-22T11:57:57.173Z,0.15
2022-11-22T12:00:28.064Z,0.15
2022-11-22T12:03:02.140Z,0.20
2022-11-22T12:05:33.655Z,0.24
2022-11-22T12:08:02.247Z,0.25
2022-11-22T12:10:42.292Z,0.19
2022-11-22T12:13:21.344Z,0.24
2022-11-22T12:15:56.849Z,0.26
2022-11-22T12:18:36.468Z,0.26
2022-11-22T12:21:15.809Z,0.39
2022-11-22T12:23:51.505Z,0.37
2022-11-22T12:26:20.339Z,0.35
2022-11-22T12:28:48.891Z,0.39
2022-11-22T12:31:26.876Z,0.45
2022-11-22T12:33:58.307Z,0.42
2022-11-22T12:36:32.914Z,0.40
2022-11-22T12:39:03.787Z,0.38
2022-11-22T12:41:34.468Z,0.41
2022-11-22T12:44:04.397Z,0.57
2022-11-22T12:46:40.112Z,0.55
2022-11-22T12:49:16.064Z,0.51
2022-11-22T12:51:48.438Z,0.51
2022-11-22T12:54:20.939Z,0.59
2022-11-22T12:56:52.164Z,0.57
2022-11-22T12:59:29.451Z,0.58
2022-11-22T13:02:06.199Z,0.64
2022-11-22T13:04:45.213Z,0.58
2022-11-22T13:07:19.963Z,0.59
2022-11-22T13:09:52.624Z,0.57
2022-11-22T13:12:27.910Z,0.54
2022-11-22T13:14:56.855Z,0.63
2022-11-22T13:17:27.041Z,0.63
2022-11-22T13:19:58.701Z,0.68
2022-11-22T13:22:33.778Z,0.73
2022-11-22T13:25:25.485Z,0.83
2022-11-22T13:27:58.819Z,0.78
2022-11-22T13:30:29.115Z,0.77
2022-11-22T13:32:59.423Z,0.75
2022-11-22T13:35:31.443Z,0.83
2022-11-22T13:38:03.924Z,0.80
2022-11-22T13:40:35.041Z,0.76
2022-11-22T13:43:50.298Z,0.76
2022-11-22T13:46:56.846Z,0.72
2022-11-22T13:49:39.117Z,0.72
2022-11-22T13:52:29.488Z,0.70
2022-11-22T13:55:24.873Z,0.67
2022-11-22T13:57:54.202Z,0.62
2022-11-22T14:00:43.535Z,0.60
2022-11-22T14:03:37.110Z,0.55
2022-11-22T14:06:28.980Z,0.54
2022-11-22T14:09:17.471Z,0.59
2022-11-22T14:11:58.517Z,0.62
2022-11-22T14:14:35.468Z,0.62
2022-11-22T14:17:15.490Z,0.69
2022-11-22T14:19:58.026Z,0.63
2022-11-22T14:22:35.653Z,0.69
2022-11-22T14:25:21.435Z,0.77
2022-11-22T14:27:57.246Z,0.73
2022-11-22T14:30:40.011Z,0.72
2022-11-22T14:33:16.756Z,0.76
2022-11-22T14:36:16.579Z,0.72
2022-11-22T14:38:45.127Z,0.62
2022-11-22T14:41:42.636Z,0.60
2022-11-22T14:44:15.673Z,0.55
2022-11-22T14:46:54.132Z,0.54
2022-11-22T14:49:34.132Z,0.55
2022-11-22T14:52:02.856Z,0.54
2022-11-22T14:54:41.540Z,0.52
2022-11-22T14:57:13.977Z,0.45
2022-11-22T15:00:17.826Z,0.44
2022-11-22T15:03:41.763Z,0.41
2022-11-22T15:09:10.445Z,0.41
2022-11-22T15:09:54.083Z,0.31
2022-11-22T15:12:41.198Z,0.29
2022-11-22T15:59:42.916Z,0.08
2022-11-22T16:02:15.880Z,0.10
2022-11-22T16:04:49.603Z,0.16
2022-11-22T16:07:40.108Z,0.11
2022-11-22T16:10:19.949Z,0.08
2022-11-22T16:12:48.069Z,0.03
2022-11-22T16:15:36.171Z,0.00
2022-11-22T16:18:09.604Z,0.04
2022-11-22T16:20:38.663Z,0.05
2022-11-22T16:23:14.980Z,0.04
2022-11-22T16:25:46.593Z,0.02
2022-11-22T16:28:34.260Z,0.04
2022-11-22T16:31:05.237Z,0.07
2022-11-22T16:33:33.604Z,0.09
2022-11-22T16:36:03.076Z,0.13
2022-11-22T16:38:31.060Z,0.12
2022-11-22T16:41:00.602Z,0.03
2022-11-22T16:43:34.972Z,0.10
2022-11-22T16:46:15.177Z,0.06
2022-11-22T16:48:43.295Z,0.10
2022-11-22T16:51:15.631Z,0.04
2022-11-22T16:53:45.871Z,0.07
2022-11-22T16:56:21.577Z,0.05
2022-11-22T16:58:50.915Z,0.01
2022-11-22T17:01:21.909Z,-0.03
2022-11-22T17:03:52.265Z,-0.03
2022-11-22T17:06:22.171Z,0.01
2022-11-22T17:08:51.592Z,-0.08
2022-11-22T17:11:22.556Z,-0.04
2022-11-22T17:13:50.601Z,-0.11
2022-11-22T17:16:18.729Z,-0.08
2022-11-22T17:18:47.536Z,-0.10
2022-11-22T17:21:18.994Z,-0.10
2022-11-22T17:23:47.305Z,-0.06
2022-11-22T17:26:15.330Z,-0.08
2022-11-22T17:28:44.653Z,-0.07
2022-11-22T17:31:14.629Z,-0.03
2022-11-22T17:33:42.637Z,-0.04
2022-11-22T17:36:22.015Z,-0.03
2022-11-22T17:38:49.969Z,-0.08
2022-11-22T17:41:18.109Z,-0.05
2022-11-22T17:43:47.643Z,-0.07
2022-11-22T17:46:15.609Z,-0.08
2022-11-22T17:48:43.615Z,-0.08
2022-11-22T17:51:13.857Z,-0.08
2022-11-22T17:53:42.320Z,-0.09
2022-11-22T17:56:11.726Z,-0.10
2022-11-22T17:58:40.268Z,-0.06
2022-11-22T18:01:11.592Z,-0.06
2022-11-22T18:03:40.372Z,-0.04
2022-11-22T18:06:09.413Z,-0.04
2022-11-22T18:08:38.819Z,-0.03
2022-11-22T18:11:09.310Z,-0.04
2022-11-22T18:13:38.923Z,-0.06
2022-11-22T18:16:12.129Z,-0.03
2022-11-22T18:18:57.467Z,-0.08
2022-11-22T18:21:26.449Z,-0.07
2022-11-22T18:23:54.537Z,-0.23
2022-11-22T18:26:39.844Z,-0.27
2022-11-22T18:29:40.719Z,-0.25
2022-11-22T18:31:59.387Z,-0.27
2022-11-22T18:34:27.879Z,-0.32
2022-11-22T18:37:01.504Z,-0.41
2022-11-22T18:39:31.968Z,-0.45
2022-11-22T18:42:00.468Z,-0.53
2022-11-22T18:44:28.539Z,-0.54
2022-11-22T18:46:56.589Z,-0.60
2022-11-22T18:49:25.935Z,-0.61
2022-11-22T18:51:54.043Z,-0.63
2022-11-22T18:54:22.872Z,-0.65
2022-11-22T18:56:50.949Z,-0.69
2022-11-22T18:59:19.111Z,-0.71
2022-11-22T19:01:47.147Z,-0.71
2022-11-22T19:04:16.163Z,-0.73
2022-11-22T19:06:45.878Z,-0.78
2022-11-22T19:09:14.202Z,-0.79
2022-11-22T19:11:42.174Z,-0.81
2022-11-22T19:14:10.184Z,-0.77
2022-11-22T19:16:38.222Z,-0.76
2022-11-22T19:19:08.128Z,-0.78
2022-11-22T19:21:36.096Z,-0.83
2022-11-22T19:24:06.376Z,-0.83
2022-11-22T19:26:34.412Z,-0.86
2022-11-22T19:29:04.532Z,-0.83
2022-11-22T19:31:33.624Z,-0.84
2022-11-22T19:34:01.647Z,-0.83
2022-11-22T19:36:33.715Z,-0.80
2022-11-22T19:39:03.381Z,-0.81
2022-11-22T19:41:32.985Z,-0.83
2022-11-22T19:44:01.197Z,-0.86
2022-11-22T19:46:29.674Z,-0.90
2022-11-22T19:48:58.754Z,-0.89
2022-11-22T19:51:28.205Z,-0.96
2022-11-22T19:53:58.787Z,-0.97
2022-11-22T19:56:30.178Z,-1.01
2022-11-22T19:59:02.017Z,-1.05
2022-11-22T20:01:32.349Z,-1.08
2022-11-22T20:04:03.567Z,-1.12
2022-11-22T20:06:32.759Z,-1.11
2022-11-22T20:09:03.842Z,-1.13
2022-11-22T20:11:31.772Z,-1.17
2022-11-22T20:14:01.107Z,-1.17
2022-11-22T20:16:30.726Z,-1.19
2022-11-22T20:19:00.025Z,-1.23
2022-11-22T20:21:30.796Z,-1.27
2022-11-22T20:24:00.243Z,-1.25
2022-11-22T20:26:29.424Z,-1.26
2022-11-22T20:28:59.424Z,-1.29
2022-11-22T20:31:31.373Z,-1.33
2022-11-22T20:34:00.473Z,-1.39
2022-11-22T20:36:30.088Z,-1.37
2022-11-22T20:38:58.872Z,-1.42
2022-11-22T20:41:28.803Z,-1.43
2022-11-22T20:43:57.062Z,-1.38
2022-11-22T20:46:26.573Z,-1.40
2022-11-22T20:49:02.749Z,-1.41
2022-11-22T20:51:30.784Z,-1.42
2022-11-22T20:53:59.798Z,-1.40
2022-11-22T20:56:27.802Z,-1.42
2022-11-22T20:58:55.816Z,-1.44
2022-11-22T21:01:25.380Z,-1.46
2022-11-22T21:03:55.235Z,-1.46
2022-11-22T21:06:25.180Z,-1.47
2022-11-22T21:08:53.222Z,-1.49
2022-11-22T21:11:23.266Z,-1.42
2022-11-22T21:13:52.233Z,-1.43
2022-11-22T21:16:23.701Z,-1.36
2022-11-22T21:18:53.308Z,-1.39
2022-11-22T21:21:26.241Z,-1.42
2022-11-22T21:23:55.567Z,-1.42
2022-11-22T21:26:24.578Z,-1.39
2022-11-22T21:28:53.110Z,-1.37
2022-11-22T21:31:21.983Z,-1.30
2022-11-22T21:33:50.828Z,-1.29
2022-11-22T21:36:19.815Z,-1.29
2022-11-22T21:38:49.210Z,-1.28
2022-11-22T21:44:06.934Z,-1.33
2022-11-22T21:46:34.906Z,-1.36
2022-11-22T21:49:03.015Z,-1.36
2022-11-22T21:51:31.901Z,-1.36
2022-11-22T21:54:02.903Z,-1.36
2022-11-22T21:56:31.565Z,-1.38
2022-11-22T21:58:59.803Z,-1.35
2022-11-22T22:01:28.287Z,-1.40
2022-11-22T22:03:56.528Z,-1.40
2022-11-22T22:06:25.122Z,-1.42
2022-11-22T22:08:53.509Z,-1.49
2022-11-22T22:11:23.299Z,-1.46
2022-11-22T22:13:53.645Z,-1.49
2022-11-22T22:16:23.748Z,-1.48
2022-11-22T22:18:51.744Z,-1.49
2022-11-22T22:21:21.107Z,-1.52
2022-11-22T22:23:49.356Z,-1.51
2022-11-22T22:26:18.075Z,-1.49
2022-11-22T22:28:47.800Z,-1.46
2022-11-22T22:31:21.710Z,-1.38
2022-11-22T22:33:51.496Z,-1.35
2022-11-22T22:36:19.484Z,-1.29
2022-11-22T22:38:47.742Z,-1.26
2022-11-22T22:41:16.012Z,-1.36
2022-11-22T22:43:45.664Z,-1.15
2022-11-22T22:46:16.872Z,-1.09
2022-11-22T22:48:45.544Z,-1.01
2022-11-22T22:51:15.166Z,-0.96
2022-11-22T22:53:44.407Z,-0.91
2022-11-22T22:56:13.660Z,-0.89
2022-11-22T22:58:42.044Z,-0.89
2022-11-22T23:01:13.633Z,-0.88
2022-11-22T23:03:43.051Z,-0.88
2022-11-22T23:06:12.584Z,-0.82
2022-11-22T23:08:40.950Z,-0.83
2022-11-22T23:11:10.876Z,-0.97
2022-11-22T23:13:40.676Z,-0.84
2022-11-22T23:16:10.632Z,-0.89
2022-11-22T23:18:40.754Z,-0.78
2022-11-22T23:21:13.412Z,-0.74
2022-11-22T23:23:41.643Z,-0.65
2022-11-22T23:26:12.328Z,-0.58
2022-11-22T23:28:40.676Z,-0.52
2022-11-22T23:31:10.342Z,-0.45
2022-11-22T23:33:38.291Z,-0.37
2022-11-22T23:36:08.056Z,-0.34
2022-11-22T23:38:37.820Z,-0.31
2022-11-22T23:41:06.326Z,-0.28
2022-11-22T23:43:34.280Z,-0.21
2022-11-22T23:46:02.248Z,-0.24
2022-11-22T23:48:30.238Z,-0.20
2022-11-22T23:51:03.392Z,-0.16
2022-11-22T23:53:31.371Z,-0.13
2022-11-22T23:56:06.466Z,-0.12
2022-11-22T23:58:34.740Z,-0.02
